McKinley Park, Alaska
Current Conditions -  °F | °C
As of 9:36 AM on Saturday 20 Dec 2014 (Local Time) from PAIN Reporting Station
Clear Clear  
Wind Chill: -17°   Ceiling: Unl
Heat Index: -17°   Visibility: 10mi
Dew Point: -18°   Wind: 0mph
Humidity: 92%   Direction: NA
Pressure: 29.01"   Gusts: NA
Location:  63.73°N, 148.91°W
Report Text: PAIN 201836Z AUTO 00000KT 10SM CLR M17/M18 A2901 RMK AO1
Loading
Personal Weather Stations






























Interactive Weather Map New forecast layout! Learn more

10-Day Weather Forecast

Advertisements
Track Severe Weather on mobile